createdAt,value
2018-02-25T00:00:47.356Z,22.07
2018-02-25T00:03:14.788Z,22.03
2018-02-25T00:05:43.022Z,13.67
2018-02-25T00:08:10.453Z,8.57
2018-02-25T00:10:37.879Z,14.97
2018-02-25T00:13:06.080Z,7.23
2018-02-25T00:15:33.512Z,16.87
2018-02-25T00:18:01.705Z,23.60
2018-02-25T00:20:29.147Z,25.87
2018-02-25T00:22:57.346Z,20.63
2018-02-25T00:25:24.779Z,10.13
2018-02-25T00:27:52.973Z,9.40
2018-02-25T00:30:20.408Z,19.30
2018-02-25T00:32:48.606Z,8.60
2018-02-25T00:35:16.041Z,7.70
2018-02-25T00:37:43.480Z,8.60
2018-02-25T00:40:11.672Z,7.70
2018-02-25T00:42:39.864Z,11.07
2018-02-25T00:45:07.309Z,11.60
2018-02-25T00:47:34.724Z,8.33
2018-02-25T00:50:02.172Z,8.90
2018-02-25T00:52:29.608Z,7.30
2018-02-25T00:54:57.039Z,7.50
2018-02-25T00:57:24.470Z,9.27
2018-02-25T00:59:52.668Z,9.10
2018-02-25T01:02:20.119Z,7.50
2018-02-25T01:04:47.558Z,7.97
2018-02-25T01:07:15.756Z,10.80
2018-02-25T01:09:43.252Z,8.27
2018-02-25T01:12:10.712Z,6.80
2018-02-25T01:14:38.143Z,12.73
2018-02-25T01:17:05.566Z,7.73
2018-02-25T01:19:33.772Z,13.80
2018-02-25T01:22:01.202Z,6.93
2018-02-25T01:24:29.398Z,7.00
2018-02-25T01:26:56.840Z,8.87
2018-02-25T01:29:24.275Z,11.40
2018-02-25T01:31:52.472Z,24.33
2018-02-25T01:34:19.903Z,28.47
2018-02-25T01:36:48.108Z,11.73
2018-02-25T01:39:15.576Z,20.30
2018-02-25T01:41:43.008Z,11.93
2018-02-25T01:44:11.524Z,26.17
2018-02-25T01:46:38.968Z,8.10
2018-02-25T01:49:06.399Z,11.03
2018-02-25T01:51:34.626Z,18.57
2018-02-25T01:54:02.060Z,42.03
2018-02-25T01:56:29.540Z,13.23
2018-02-25T01:58:57.034Z,50.33
2018-02-25T02:01:24.457Z,34.83
2018-02-25T02:03:51.917Z,33.17
2018-02-25T02:06:19.466Z,13.80
2018-02-25T02:08:46.909Z,8.83
2018-02-25T02:11:14.391Z,8.60
2018-02-25T02:13:41.803Z,10.37
2018-02-25T02:16:09.237Z,15.00
2018-02-25T02:18:37.440Z,16.83
2018-02-25T02:21:04.940Z,8.63
2018-02-25T02:23:32.380Z,9.20
2018-02-25T02:25:59.867Z,10.93
2018-02-25T02:28:27.291Z,12.83
2018-02-25T02:30:54.728Z,13.27
2018-02-25T02:33:22.161Z,8.30
2018-02-25T02:35:50.372Z,13.10
2018-02-25T02:38:17.808Z,12.90
2018-02-25T02:40:45.240Z,14.80
2018-02-25T02:43:13.447Z,8.47
2018-02-25T02:45:40.871Z,7.23
2018-02-25T02:48:09.075Z,10.73
2018-02-25T02:50:36.506Z,11.93
2018-02-25T02:53:04.763Z,10.07
2018-02-25T02:55:32.191Z,11.57
2018-02-25T02:57:59.637Z,20.13
2018-02-25T03:00:27.074Z,32.23
2018-02-25T03:02:54.520Z,14.47
2018-02-25T03:05:21.964Z,8.20
2018-02-25T03:07:50.163Z,14.90
2018-02-25T03:10:17.652Z,15.13
2018-02-25T03:12:45.076Z,10.33
2018-02-25T03:15:12.506Z,10.90
2018-02-25T03:17:40.749Z,9.10
2018-02-25T03:20:08.179Z,14.20
2018-02-25T03:22:35.651Z,10.47
2018-02-25T03:25:03.120Z,9.47
2018-02-25T03:27:30.551Z,8.60
2018-02-25T03:29:57.984Z,11.33
2018-02-25T03:32:25.556Z,9.77
2018-02-25T03:34:53.145Z,9.30
2018-02-25T03:37:20.599Z,8.43
2018-02-25T03:39:48.056Z,12.77
2018-02-25T03:42:15.484Z,9.50
2018-02-25T03:44:42.922Z,11.83
2018-02-25T03:47:10.419Z,12.37
2018-02-25T03:49:37.875Z,11.30
2018-02-25T03:52:05.345Z,13.20
2018-02-25T03:54:32.792Z,15.00
2018-02-25T03:57:00.226Z,13.47
2018-02-25T03:59:27.651Z,15.93
2018-02-25T04:01:55.884Z,24.63
2018-02-25T04:04:23.314Z,30.40
2018-02-25T04:06:50.880Z,21.70
2018-02-25T04:09:18.320Z,16.80
2018-02-25T04:11:45.763Z,13.97
2018-02-25T04:14:13.196Z,15.53
2018-02-25T04:16:40.724Z,14.83
2018-02-25T04:19:08.152Z,11.20
2018-02-25T04:21:35.589Z,14.97
2018-02-25T04:24:03.807Z,16.33
2018-02-25T04:26:31.243Z,14.63
2018-02-25T04:28:58.727Z,17.10
2018-02-25T04:31:26.183Z,30.13
2018-02-25T04:33:53.635Z,18.13
2018-02-25T04:36:21.076Z,16.80
2018-02-25T04:38:48.551Z,20.83
2018-02-25T04:41:15.984Z,17.67
2018-02-25T04:43:43.429Z,16.90
2018-02-25T04:46:10.867Z,29.33
2018-02-25T04:48:39.092Z,32.80
2018-02-25T04:51:06.528Z,27.77
2018-02-25T04:53:33.974Z,24.10
2018-02-25T04:56:01.408Z,25.23
2018-02-25T04:58:29.644Z,24.10
2018-02-25T05:00:57.100Z,16.23
2018-02-25T05:03:24.565Z,17.60
2018-02-25T05:05:51.996Z,20.53
2018-02-25T05:08:19.442Z,18.30
2018-02-25T05:10:46.872Z,20.20
2018-02-25T05:13:15.105Z,15.80
2018-02-25T05:15:42.532Z,16.17
2018-02-25T05:18:09.963Z,16.37
2018-02-25T05:20:38.192Z,18.80
2018-02-25T05:23:05.658Z,18.00
2018-02-25T05:25:33.094Z,20.80
2018-02-25T05:28:00.532Z,22.30
2018-02-25T05:30:27.964Z,20.70
2018-02-25T05:32:56.177Z,14.50
2018-02-25T05:35:23.653Z,14.80
2018-02-25T05:37:51.124Z,17.43
2018-02-25T05:40:18.548Z,17.90
2018-02-25T05:42:46.016Z,18.83
2018-02-25T05:45:13.456Z,17.00
2018-02-25T05:47:40.893Z,20.13
2018-02-25T05:50:08.329Z,17.63
2018-02-25T05:52:36.535Z,12.83
2018-02-25T05:55:04.013Z,17.13
2018-02-25T05:57:31.467Z,29.17
2018-02-25T05:59:58.918Z,27.13
2018-02-25T06:02:26.364Z,35.97
2018-02-25T06:04:53.818Z,23.90
2018-02-25T06:07:22.044Z,23.23
2018-02-25T06:09:49.576Z,52.10
2018-02-25T06:12:17.135Z,29.23
2018-02-25T06:14:44.809Z,20.23
2018-02-25T06:17:12.239Z,22.47
2018-02-25T06:19:39.688Z,27.30
2018-02-25T06:22:07.172Z,23.17
2018-02-25T06:24:34.637Z,16.13
2018-02-25T06:27:02.075Z,15.53
2018-02-25T06:29:29.516Z,23.27
2018-02-25T06:31:56.947Z,20.67
2018-02-25T06:34:25.167Z,15.30
2018-02-25T06:36:52.610Z,30.27
2018-02-25T06:39:20.046Z,12.40
2018-02-25T06:41:47.507Z,30.60
2018-02-25T06:44:14.936Z,16.60
2018-02-25T06:46:43.173Z,16.40
2018-02-25T06:49:10.627Z,12.53
2018-02-25T06:51:38.183Z,13.67
2018-02-25T06:54:05.661Z,13.73
2018-02-25T06:56:33.204Z,11.90
2018-02-25T06:59:00.663Z,12.83
2018-02-25T07:01:28.092Z,15.03
2018-02-25T07:03:55.528Z,10.23
2018-02-25T07:06:23.031Z,11.17
2018-02-25T07:08:50.502Z,12.20
2018-02-25T07:11:17.943Z,11.07
2018-02-25T07:13:46.115Z,10.40
2018-02-25T07:16:13.591Z,10.30
2018-02-25T07:18:41.028Z,13.17
2018-02-25T07:21:08.465Z,10.30
2018-02-25T07:23:35.893Z,11.70
2018-02-25T07:26:04.105Z,10.50
2018-02-25T07:28:31.532Z,9.17
2018-02-25T07:30:58.964Z,8.33
2018-02-25T07:33:26.402Z,7.77
2018-02-25T07:35:53.843Z,9.20
2018-02-25T07:38:21.308Z,9.27
2018-02-25T07:40:48.837Z,9.70
2018-02-25T07:43:16.266Z,7.90
2018-02-25T07:45:44.490Z,8.50
2018-02-25T07:48:11.952Z,10.63
2018-02-25T07:50:39.379Z,8.30
2018-02-25T07:53:06.971Z,11.13
2018-02-25T07:55:34.420Z,8.83
2018-02-25T07:58:01.867Z,12.10
2018-02-25T08:00:29.364Z,9.20
2018-02-25T08:02:56.740Z,9.30
2018-02-25T08:05:24.964Z,12.70
2018-02-25T08:07:52.407Z,12.30
2018-02-25T08:10:19.892Z,12.20
2018-02-25T08:12:47.311Z,11.20
2018-02-25T08:15:14.747Z,12.30
2018-02-25T08:17:42.247Z,9.40
2018-02-25T08:20:09.700Z,7.53
2018-02-25T08:22:37.137Z,11.20
2018-02-25T08:25:04.620Z,15.47
2018-02-25T08:27:32.067Z,8.97
2018-02-25T08:29:59.539Z,13.80
2018-02-25T08:32:26.972Z,11.63
2018-02-25T08:34:54.448Z,8.47
2018-02-25T08:37:22.011Z,12.80
2018-02-25T08:39:49.451Z,9.07
2018-02-25T08:42:17.452Z,12.27
2018-02-25T08:44:44.992Z,10.70
2018-02-25T08:47:12.443Z,10.47
2018-02-25T08:49:39.881Z,11.67
2018-02-25T08:52:07.312Z,15.23
2018-02-25T08:54:35.516Z,10.17
2018-02-25T08:57:02.972Z,10.93
2018-02-25T08:59:30.405Z,10.57
2018-02-25T09:01:58.598Z,11.30
2018-02-25T09:04:26.081Z,7.90
2018-02-25T09:06:53.533Z,10.50
2018-02-25T09:09:20.979Z,12.87
2018-02-25T09:11:48.451Z,9.50
2018-02-25T09:14:15.904Z,10.43
2018-02-25T09:16:43.364Z,10.50
2018-02-25T09:19:10.819Z,9.73
2018-02-25T09:21:38.268Z,12.63
2018-02-25T09:24:05.744Z,8.83
2018-02-25T09:26:33.296Z,10.20
2018-02-25T09:29:00.752Z,9.97
2018-02-25T09:31:28.195Z,8.03
2018-02-25T09:33:55.623Z,10.93
2018-02-25T09:36:23.129Z,12.47
2018-02-25T09:38:50.564Z,10.40
2018-02-25T09:41:18.008Z,11.50
2018-02-25T09:43:45.429Z,8.40
2018-02-25T09:46:13.641Z,12.73
2018-02-25T09:48:41.087Z,7.77
2018-02-25T09:51:08.520Z,10.77
2018-02-25T09:53:36.713Z,11.97
2018-02-25T09:56:04.147Z,11.07
2018-02-25T09:58:32.360Z,10.77
2018-02-25T10:00:59.936Z,9.73
2018-02-25T10:03:27.368Z,13.97
2018-02-25T10:05:54.800Z,10.30
2018-02-25T10:08:22.997Z,7.23
2018-02-25T10:10:50.427Z,10.43
2018-02-25T10:13:18.627Z,8.27
2018-02-25T10:15:46.057Z,10.10
2018-02-25T10:18:14.272Z,8.83
2018-02-25T10:20:41.708Z,6.23
2018-02-25T10:23:09.134Z,8.57
2018-02-25T10:25:36.667Z,6.93
2018-02-25T10:28:04.094Z,7.60
2018-02-25T10:30:31.539Z,6.07
2018-02-25T10:32:58.968Z,7.43
2018-02-25T10:35:27.264Z,7.93
2018-02-25T10:37:55.457Z,6.53
2018-02-25T10:40:22.925Z,5.87
2018-02-25T10:42:50.347Z,5.03
2018-02-25T10:45:18.536Z,8.00
2018-02-25T10:47:45.992Z,5.83
2018-02-25T10:50:13.427Z,6.83
2018-02-25T10:52:41.648Z,5.37
2018-02-25T10:55:09.090Z,6.70
2018-02-25T10:57:36.512Z,7.40
2018-02-25T11:00:04.715Z,5.43
2018-02-25T11:02:32.161Z,15.37
2018-02-25T11:04:59.583Z,4.97
2018-02-25T11:07:27.061Z,10.80
2018-02-25T11:09:55.275Z,10.63
2018-02-25T11:12:22.705Z,10.97
2018-02-25T11:14:50.136Z,10.90
2018-02-25T11:17:18.851Z,5.33
2018-02-25T11:19:47.061Z,6.90
2018-02-25T11:22:14.496Z,11.00
2018-02-25T11:24:41.939Z,16.40
2018-02-25T11:27:09.371Z,10.33
2018-02-25T11:29:37.567Z,3.80
2018-02-25T11:32:05.016Z,10.73
2018-02-25T11:34:33.205Z,7.40
2018-02-25T11:37:00.642Z,5.47
2018-02-25T11:39:28.836Z,9.43
2018-02-25T11:41:56.262Z,7.00
2018-02-25T11:44:24.460Z,9.97
2018-02-25T11:46:51.910Z,6.80
2018-02-25T11:49:20.101Z,6.60
2018-02-25T11:51:47.531Z,9.40
2018-02-25T11:54:15.723Z,4.03
2018-02-25T11:56:43.151Z,7.73
2018-02-25T11:59:11.344Z,5.63
2018-02-25T12:01:39.543Z,5.20
2018-02-25T12:04:06.975Z,5.80
2018-02-25T12:06:34.407Z,5.57
2018-02-25T12:09:01.839Z,5.40
2018-02-25T12:11:29.266Z,5.93
2018-02-25T12:13:56.724Z,5.40
2018-02-25T12:16:24.200Z,4.90
2018-02-25T12:18:51.627Z,5.90
2018-02-25T12:21:19.063Z,5.40
2018-02-25T12:23:47.243Z,5.67
2018-02-25T12:26:14.677Z,4.87
2018-02-25T12:28:42.097Z,5.00
2018-02-25T12:31:09.536Z,7.40
2018-02-25T12:33:36.952Z,3.33
2018-02-25T12:36:05.155Z,6.60
2018-02-25T12:38:33.227Z,5.10
2018-02-25T12:41:00.755Z,3.53
2018-02-25T12:43:28.952Z,3.07
2018-02-25T12:45:56.385Z,3.13
2018-02-25T12:48:24.610Z,7.80
2018-02-25T12:50:52.029Z,3.60
2018-02-25T12:53:20.229Z,3.40
2018-02-25T12:55:47.651Z,4.13
2018-02-25T12:58:15.861Z,11.80
2018-02-25T13:00:43.285Z,3.83
2018-02-25T13:03:11.490Z,12.53
2018-02-25T13:05:38.921Z,15.37
2018-02-25T13:08:07.113Z,8.03
2018-02-25T13:10:34.548Z,11.47
2018-02-25T13:13:02.742Z,6.20
2018-02-25T13:15:30.189Z,6.97
2018-02-25T13:17:58.390Z,34.27
2018-02-25T13:20:25.831Z,30.00
2018-02-25T13:22:53.268Z,14.80
2018-02-25T13:25:21.476Z,13.23
2018-02-25T13:27:48.902Z,5.93
2018-02-25T13:30:16.340Z,13.40
2018-02-25T13:32:43.785Z,16.87
2018-02-25T13:35:11.220Z,16.60
2018-02-25T13:37:38.671Z,9.27
2018-02-25T13:40:06.106Z,5.87
2018-02-25T13:42:33.530Z,14.93
2018-02-25T13:45:01.744Z,13.70
2018-02-25T13:47:29.193Z,14.90
2018-02-25T13:49:56.646Z,10.57
2018-02-25T13:52:24.064Z,5.13
2018-02-25T13:54:51.503Z,14.17
2018-02-25T13:57:18.944Z,14.93
2018-02-25T13:59:46.384Z,6.40
2018-02-25T14:02:13.842Z,11.17
2018-02-25T14:04:41.269Z,5.23
2018-02-25T14:07:09.457Z,6.50
2018-02-25T14:09:36.885Z,7.80
2018-02-25T14:12:05.112Z,7.90
2018-02-25T14:14:32.552Z,5.07
2018-02-25T14:16:59.991Z,9.93
2018-02-25T14:19:28.183Z,3.67
2018-02-25T14:21:55.610Z,7.90
2018-02-25T14:24:23.814Z,8.87
2018-02-25T14:26:51.240Z,6.30
2018-02-25T14:29:19.431Z,6.47
2018-02-25T14:31:46.868Z,3.57
2018-02-25T14:34:15.083Z,6.23
2018-02-25T14:36:42.507Z,5.70
2018-02-25T14:39:10.707Z,5.30
2018-02-25T14:41:38.132Z,7.50
2018-02-25T14:44:06.328Z,4.73
2018-02-25T14:46:33.751Z,6.93
2018-02-25T14:49:01.951Z,9.73
2018-02-25T14:51:29.379Z,19.60
2018-02-25T14:53:57.588Z,10.60
2018-02-25T14:56:25.020Z,3.77
2018-02-25T14:58:53.240Z,10.15
2018-02-25T15:01:20.672Z,16.73
2018-02-25T15:03:48.101Z,6.20
2018-02-25T15:06:16.303Z,7.73
2018-02-25T15:08:43.737Z,9.60
2018-02-25T15:11:11.933Z,10.27
2018-02-25T15:13:39.357Z,9.03
2018-02-25T15:16:06.792Z,6.90
2018-02-25T15:18:34.217Z,8.00
2018-02-25T15:21:01.643Z,6.97
2018-02-25T15:23:29.934Z,7.03
2018-02-25T15:25:57.364Z,7.00
2018-02-25T15:28:28.048Z,5.67
2018-02-25T15:30:55.659Z,4.57
2018-02-25T15:33:24.957Z,7.50
2018-02-25T15:35:52.436Z,5.70
2018-02-25T15:38:19.866Z,6.80
2018-02-25T15:40:47.291Z,6.97
2018-02-25T15:43:14.717Z,6.43
2018-02-25T15:45:42.141Z,5.37
2018-02-25T15:48:10.336Z,6.23
2018-02-25T15:50:37.772Z,6.50
2018-02-25T15:53:05.977Z,12.60
2018-02-25T15:55:33.423Z,9.47
2018-02-25T15:58:01.259Z,4.57
2018-02-25T16:00:28.691Z,4.73
2018-02-25T16:02:56.148Z,5.20
2018-02-25T16:05:23.584Z,6.07
2018-02-25T16:07:51.020Z,4.70
2018-02-25T16:10:18.448Z,6.47
2018-02-25T16:12:45.894Z,6.27
2018-02-25T16:15:13.333Z,7.90
2018-02-25T16:17:40.754Z,7.10
2018-02-25T16:20:08.197Z,6.40
2018-02-25T16:22:35.627Z,10.40
2018-02-25T16:25:03.815Z,6.70
2018-02-25T16:27:32.063Z,9.13
2018-02-25T16:29:59.487Z,7.47
2018-02-25T16:32:26.914Z,5.40
2018-02-25T16:34:54.347Z,4.57
2018-02-25T16:37:22.553Z,8.33
2018-02-25T16:39:50.729Z,5.37
2018-02-25T16:42:18.152Z,4.40
2018-02-25T16:44:46.356Z,6.80
2018-02-25T16:47:13.784Z,8.27
2018-02-25T16:49:41.995Z,7.33
2018-02-25T16:52:09.432Z,6.17
2018-02-25T16:54:36.928Z,6.10
2018-02-25T16:57:05.152Z,15.83
2018-02-25T16:59:32.607Z,13.70
2018-02-25T17:02:00.820Z,5.97
2018-02-25T17:04:28.249Z,6.93
2018-02-25T17:06:56.459Z,7.40
2018-02-25T17:09:23.884Z,11.17
2018-02-25T17:11:55.373Z,7.40
2018-02-25T17:14:22.822Z,13.23
2018-02-25T17:16:50.254Z,7.27
2018-02-25T17:19:17.680Z,7.10
2018-02-25T17:21:45.126Z,7.87
2018-02-25T17:24:12.563Z,8.63
2018-02-25T17:26:40.024Z,7.50
2018-02-25T17:29:07.444Z,6.27
2018-02-25T17:31:34.880Z,7.37
2018-02-25T17:34:03.076Z,8.53
2018-02-25T17:36:30.512Z,23.33
2018-02-25T17:38:58.723Z,7.00
2018-02-25T17:41:26.151Z,6.30
2018-02-25T17:43:53.585Z,15.27
2018-02-25T17:46:21.788Z,3.63
2018-02-25T17:48:50.064Z,3.60
2018-02-25T17:51:17.492Z,4.43
2018-02-25T17:53:45.709Z,4.63
2018-02-25T17:56:13.140Z,2.50
2018-02-25T17:58:41.343Z,4.80
2018-02-25T18:01:08.760Z,6.70
2018-02-25T18:03:36.955Z,5.80
2018-02-25T18:06:04.400Z,4.17
2018-02-25T18:08:32.595Z,7.60
2018-02-25T18:11:00.018Z,4.67
2018-02-25T18:13:28.594Z,6.07
2018-02-25T18:15:56.059Z,3.90
2018-02-25T18:18:24.262Z,8.33
2018-02-25T18:20:51.692Z,5.13
2018-02-25T18:23:19.887Z,5.37
2018-02-25T18:25:47.326Z,6.50
2018-02-25T18:28:15.527Z,5.17
2018-02-25T18:30:42.993Z,4.77
2018-02-25T18:33:10.420Z,4.70
2018-02-25T18:35:38.616Z,4.13
2018-02-25T18:38:06.115Z,5.77
2018-02-25T18:40:33.557Z,12.47
2018-02-25T18:43:00.976Z,3.53
2018-02-25T18:45:28.424Z,7.37
2018-02-25T18:47:56.607Z,10.77
2018-02-25T18:50:24.035Z,6.90
2018-02-25T18:52:52.229Z,5.40
2018-02-25T18:55:20.588Z,7.20
2018-02-25T18:57:48.804Z,8.20
2018-02-25T19:00:23.478Z,7.13
2018-02-25T19:02:50.888Z,7.30
2018-02-25T19:05:18.975Z,7.17
2018-02-25T19:07:49.802Z,12.10
2018-02-25T19:10:18.232Z,13.30
2018-02-25T19:12:46.432Z,7.70
2018-02-25T19:15:13.859Z,7.20
2018-02-25T19:17:42.093Z,6.50
2018-02-25T19:20:09.517Z,9.30
2018-02-25T19:22:36.955Z,4.40
2018-02-25T19:25:05.151Z,7.13
2018-02-25T19:27:32.577Z,7.97
2018-02-25T19:30:00.775Z,10.00
2018-02-25T19:32:28.223Z,20.30
2018-02-25T19:34:56.416Z,5.50
2018-02-25T19:37:29.533Z,12.67
2018-02-25T19:40:01.561Z,4.43
2018-02-25T19:42:29.001Z,18.27
2018-02-25T19:44:57.196Z,13.90
2018-02-25T19:47:24.624Z,11.30
2018-02-25T19:49:52.844Z,16.83
2018-02-25T19:52:20.276Z,12.47
2018-02-25T19:54:48.529Z,21.40
2018-02-25T19:57:15.915Z,14.90
2018-02-25T19:59:43.347Z,15.17
2018-02-25T20:02:11.580Z,11.57
2018-02-25T20:04:38.980Z,9.90
2018-02-25T20:07:07.176Z,9.60
2018-02-25T20:09:34.611Z,21.43
2018-02-25T20:12:02.827Z,19.47
2018-02-25T20:14:30.274Z,10.13
2018-02-25T20:16:57.696Z,6.87
2018-02-25T20:19:25.908Z,12.23
2018-02-25T20:21:53.342Z,18.10
2018-02-25T20:24:20.812Z,6.20
2018-02-25T20:26:48.215Z,8.60
2018-02-25T20:29:15.647Z,8.60
2018-02-25T20:31:43.099Z,4.43
2018-02-25T20:34:10.529Z,4.13
2018-02-25T20:36:37.954Z,6.40
2018-02-25T20:39:05.394Z,7.70
2018-02-25T20:41:32.822Z,8.90
2018-02-25T20:44:00.268Z,4.60
2018-02-25T20:46:27.716Z,8.80
2018-02-25T20:48:55.139Z,5.27
2018-02-25T20:51:23.332Z,5.37
2018-02-25T20:53:51.562Z,6.70
2018-02-25T20:56:18.955Z,6.10
2018-02-25T20:58:47.159Z,5.47
2018-02-25T21:01:14.581Z,7.00
2018-02-25T21:03:42.800Z,2.77
2018-02-25T21:06:10.224Z,6.30
2018-02-25T21:08:37.651Z,5.00
2018-02-25T21:11:05.088Z,5.00
2018-02-25T21:13:32.516Z,4.37
2018-02-25T21:15:59.959Z,8.30
2018-02-25T21:18:27.392Z,12.90
2018-02-25T21:20:55.631Z,15.03
2018-02-25T21:23:23.058Z,14.43
2018-02-25T21:25:50.494Z,13.27
2018-02-25T21:28:18.690Z,12.13
2018-02-25T21:30:46.141Z,16.87
2018-02-25T21:33:13.572Z,15.43
2018-02-25T21:35:41.768Z,11.70
2018-02-25T21:38:09.211Z,8.43
2018-02-25T21:40:37.399Z,9.27
2018-02-25T21:43:04.832Z,8.97
2018-02-25T21:45:33.037Z,11.53
2018-02-25T21:48:00.471Z,13.50
2018-02-25T21:50:28.669Z,10.73
2018-02-25T21:52:56.100Z,7.47
2018-02-25T21:55:24.303Z,5.30
2018-02-25T21:57:57.281Z,6.93
2018-02-25T22:00:30.488Z,12.93
2018-02-25T22:03:03.691Z,12.50
2018-02-25T22:05:31.154Z,13.10
2018-02-25T22:07:58.645Z,33.33
2018-02-25T22:10:26.064Z,14.50
2018-02-25T22:12:53.507Z,10.33
2018-02-25T22:15:20.936Z,18.47
2018-02-25T22:17:48.377Z,5.60
2018-02-25T22:20:16.607Z,28.27
2018-02-25T22:22:44.063Z,17.43
2018-02-25T22:25:11.520Z,15.17
2018-02-25T22:27:39.009Z,14.67
2018-02-25T22:30:06.436Z,7.53
2018-02-25T22:32:33.872Z,6.73
2018-02-25T22:35:01.332Z,5.10
2018-02-25T22:37:28.762Z,6.07
2018-02-25T22:39:56.260Z,9.87
2018-02-25T22:42:23.696Z,4.07
2018-02-25T22:44:51.139Z,5.83
2018-02-25T22:47:18.631Z,12.60
2018-02-25T22:49:46.095Z,4.67
2018-02-25T22:52:13.552Z,16.40
2018-02-25T22:54:40.995Z,6.60
2018-02-25T22:57:08.460Z,6.30
2018-02-25T22:59:35.899Z,7.97
2018-02-25T23:02:03.353Z,9.80
2018-02-25T23:04:31.094Z,7.70
2018-02-25T23:06:59.291Z,7.00
2018-02-25T23:09:26.729Z,5.50
2018-02-25T23:11:54.370Z,6.20
2018-02-25T23:14:22.612Z,11.70
2018-02-25T23:16:50.068Z,7.70
2018-02-25T23:19:17.515Z,4.30
2018-02-25T23:21:44.984Z,8.97
2018-02-25T23:24:12.536Z,4.63
2018-02-25T23:26:39.996Z,5.30
2018-02-25T23:29:07.444Z,12.23
2018-02-25T23:31:34.880Z,17.13
2018-02-25T23:34:02.360Z,25.20
2018-02-25T23:36:29.829Z,13.73
2018-02-25T23:38:57.279Z,11.33
2018-02-25T23:41:24.724Z,15.00
2018-02-25T23:43:52.165Z,16.87
2018-02-25T23:46:19.621Z,19.50
2018-02-25T23:48:47.117Z,8.13
2018-02-25T23:51:14.555Z,7.03
2018-02-25T23:53:42.000Z,14.33
2018-02-25T23:56:09.460Z,23.17
2018-02-25T23:58:36.891Z,36.20
